الصفحة الرئيسية
METAR-TAF:

METAR-TAF

مطار :

مطار كوبنهاغن

كوبنهاغن, الدنمارك

دائرة عرض: 55-37N, خط طول: 012-39E, ارتفاع: 5 متر

مراقبة الطقس الحالي

تاريخ ووقت الإصدار 24 دقيقة قبل الساعة 02:50UTC
ريح 2 عقدة من الشرق
درجة الحرارة 13°درجة مئوية
الرطوبة 62%
ضغط 1027 hPa
الرؤية 10 كم أو أكثر
الغيوم لا تقل 1500 م ولا وجود لمزنة ركامية السحاب الأسود

METAR: EKCH 250250Z 08002KT CAVOK 13/06 Q1027 NOSIG

زمن: 05:14 (03:14 UTC)

توقعات

تاريخ ووقت الإصدار 4ساعات و 18 دقيقة قبل الساعة 22:56UTC
التوقعات صالحة من25 الساعة 00 UTC إلى 25 الساعة 24 UTC
ريح 8 عقدة من الشرق/الشمال الشرقي
الرؤية 10 كم أو أكثر
الغيوم لا تقل 1500 م ولا وجود لمزنة ركامية السحاب الأسود

TAF: EKCH 242256Z 2500/2524 07008KT CAVOK

أرصاد الطقس والتوقعات من أكثر من 4000 مطار (تقارير الطقس للمطار METAR والتنبؤ بالطقس بالمطارTAF).

المحطات المتاحة هي النقط الصفراء والحمراء على الخريطة.

حرك المؤشر فوق النقطة لمعرفة اسم المحطة.

ثم انقر لمعرفة أرصاد وتوقعات الطقس.

لتغيير الخارطة: اضغط على الأزرار الخضراء مع رمز الصليب الأسود للتكبير. على الزر الأخضر مع شرطة للتصغير، أو على الأسهم الخضراء للخرائط المجاورة.


METAR-TAF: